sensor_id;sensor_type;location;lat;lon;timestamp;pressure;altitude;pressure_sealevel;temperature;humidity
72570;BME280;60594;50.204;8.844;2023-02-03T00:02:21;101027.53;;;6.89;89.05
72570;BME280;60594;50.204;8.844;2023-02-03T00:04:48;101008.13;;;6.89;89.19
72570;BME280;60594;50.204;8.844;2023-02-03T00:07:15;100992.00;;;6.76;89.38
72570;BME280;60594;50.204;8.844;2023-02-03T00:09:42;101009.31;;;6.83;89.45
72570;BME280;60594;50.204;8.844;2023-02-03T00:12:08;100999.66;;;6.82;89.73
72570;BME280;60594;50.204;8.844;2023-02-03T00:14:36;100976.38;;;6.72;89.98
72570;BME280;60594;50.204;8.844;2023-02-03T00:17:04;101014.81;;;6.96;89.61
72570;BME280;60594;50.204;8.844;2023-02-03T00:19:31;100983.06;;;6.79;89.35
72570;BME280;60594;50.204;8.844;2023-02-03T00:21:57;100978.00;;;6.74;89.91
72570;BME280;60594;50.204;8.844;2023-02-03T00:24:24;100994.59;;;6.78;90.07
72570;BME280;60594;50.204;8.844;2023-02-03T00:26:50;101006.28;;;6.91;90.14
72570;BME280;60594;50.204;8.844;2023-02-03T00:29:18;101003.25;;;6.81;90.26
72570;BME280;60594;50.204;8.844;2023-02-03T00:31:46;101005.09;;;6.79;90.37
72570;BME280;60594;50.204;8.844;2023-02-03T00:34:13;100998.47;;;6.71;90.45
72570;BME280;60594;50.204;8.844;2023-02-03T00:36:39;101004.28;;;6.79;90.26
72570;BME280;60594;50.204;8.844;2023-02-03T00:39:08;101008.63;;;6.80;90.45
72570;BME280;60594;50.204;8.844;2023-02-03T00:41:34;101010.63;;;6.92;89.92
72570;BME280;60594;50.204;8.844;2023-02-03T00:44:01;100998.09;;;6.78;90.09
72570;BME280;60594;50.204;8.844;2023-02-03T00:46:29;100997.88;;;6.83;89.97
72570;BME280;60594;50.204;8.844;2023-02-03T00:48:57;101009.31;;;6.83;90.36
72570;BME280;60594;50.204;8.844;2023-02-03T00:51:23;100988.44;;;6.77;90.42
72570;BME280;60594;50.204;8.844;2023-02-03T00:53:51;100997.69;;;6.86;90.43
72570;BME280;60594;50.204;8.844;2023-02-03T00:56:17;100972.34;;;6.65;90.85
72570;BME280;60594;50.204;8.844;2023-02-03T00:58:44;100970.28;;;6.70;91.34
72570;BME280;60594;50.204;8.844;2023-02-03T01:01:10;100969.28;;;6.72;91.48
72570;BME280;60594;50.204;8.844;2023-02-03T01:03:37;100951.53;;;6.74;91.26
72570;BME280;60594;50.204;8.844;2023-02-03T01:06:16;100920.28;;;6.64;92.02
72570;BME280;60594;50.204;8.844;2023-02-03T01:08:44;100936.56;;;6.73;91.44
72570;BME280;60594;50.204;8.844;2023-02-03T01:11:17;100956.44;;;6.65;91.60
72570;BME280;60594;50.204;8.844;2023-02-03T01:13:44;100977.22;;;6.72;91.88
72570;BME280;60594;50.204;8.844;2023-02-03T01:16:13;100972.94;;;6.70;92.15
72570;BME280;60594;50.204;8.844;2023-02-03T01:18:40;100950.41;;;6.46;93.09
72570;BME280;60594;50.204;8.844;2023-02-03T01:21:09;100957.31;;;6.48;93.21
72570;BME280;60594;50.204;8.844;2023-02-03T01:23:37;100938.94;;;6.45;93.32
72570;BME280;60594;50.204;8.844;2023-02-03T01:26:06;100955.19;;;6.55;93.65
72570;BME280;60594;50.204;8.844;2023-02-03T01:28:34;100953.16;;;6.60;93.49
72570;BME280;60594;50.204;8.844;2023-02-03T01:31:09;100943.28;;;6.46;93.46
72570;BME280;60594;50.204;8.844;2023-02-03T01:33:36;100941.09;;;6.54;93.11
72570;BME280;60594;50.204;8.844;2023-02-03T01:36:09;100958.47;;;6.60;93.44
72570;BME280;60594;50.204;8.844;2023-02-03T01:38:37;100942.56;;;6.60;93.76
72570;BME280;60594;50.204;8.844;2023-02-03T01:41:05;100922.66;;;6.53;93.46
72570;BME280;60594;50.204;8.844;2023-02-03T01:43:34;100949.75;;;6.58;94.09
72570;BME280;60594;50.204;8.844;2023-02-03T01:46:11;100951.47;;;6.59;94.36
72570;BME280;60594;50.204;8.844;2023-02-03T01:48:41;100930.78;;;6.50;94.11
72570;BME280;60594;50.204;8.844;2023-02-03T01:51:08;100943.13;;;6.66;93.83
72570;BME280;60594;50.204;8.844;2023-02-03T01:53:35;100951.91;;;6.67;93.79
72570;BME280;60594;50.204;8.844;2023-02-03T01:56:03;100952.34;;;6.75;93.70
72570;BME280;60594;50.204;8.844;2023-02-03T01:58:32;100936.56;;;6.73;92.83
72570;BME280;60594;50.204;8.844;2023-02-03T02:01:02;100943.41;;;6.77;93.54
72570;BME280;60594;50.204;8.844;2023-02-03T02:03:39;100928.88;;;6.69;93.86
72570;BME280;60594;50.204;8.844;2023-02-03T02:06:11;100928.28;;;6.79;93.56
72570;BME280;60594;50.204;8.844;2023-02-03T02:08:43;100926.50;;;6.80;93.86
72570;BME280;60594;50.204;8.844;2023-02-03T02:11:11;100920.25;;;6.81;93.89
72570;BME280;60594;50.204;8.844;2023-02-03T02:13:42;100926.44;;;6.97;93.04
72570;BME280;60594;50.204;8.844;2023-02-03T02:16:19;100916.94;;;6.93;93.01
72570;BME280;60594;50.204;8.844;2023-02-03T02:21:37;100926.72;;;7.08;92.21
72570;BME280;60594;50.204;8.844;2023-02-03T02:24:25;100940.31;;;7.02;92.79
72570;BME280;60594;50.204;8.844;2023-02-03T02:27:05;100935.44;;;7.10;92.29
72570;BME280;60594;50.204;8.844;2023-02-03T02:30:01;100947.44;;;7.17;92.38
72570;BME280;60594;50.204;8.844;2023-02-03T02:32:46;100935.13;;;7.16;91.97
72570;BME280;60594;50.204;8.844;2023-02-03T02:37:51;100948.31;;;7.18;92.68
72570;BME280;60594;50.204;8.844;2023-02-03T02:43:10;100943.16;;;7.15;92.71
72570;BME280;60594;50.204;8.844;2023-02-03T02:45:51;100964.56;;;7.27;92.32
72570;BME280;60594;50.204;8.844;2023-02-03T02:48:35;100944.88;;;7.16;92.85
72570;BME280;60594;50.204;8.844;2023-02-03T02:51:05;100960.59;;;7.19;92.68
72570;BME280;60594;50.204;8.844;2023-02-03T02:53:38;100963.84;;;7.24;92.23
72570;BME280;60594;50.204;8.844;2023-02-03T02:56:07;100963.66;;;7.11;92.77
72570;BME280;60594;50.204;8.844;2023-02-03T02:58:37;100952.41;;;7.23;92.13
72570;BME280;60594;50.204;8.844;2023-02-03T03:01:07;100957.53;;;7.11;92.61
72570;BME280;60594;50.204;8.844;2023-02-03T03:03:37;100965.75;;;7.22;92.40
72570;BME280;60594;50.204;8.844;2023-02-03T03:06:14;100951.34;;;7.10;92.47
72570;BME280;60594;50.204;8.844;2023-02-03T03:08:45;100953.13;;;7.09;92.75
72570;BME280;60594;50.204;8.844;2023-02-03T03:11:14;100942.72;;;7.07;92.56
72570;BME280;60594;50.204;8.844;2023-02-03T03:13:47;100929.56;;;7.05;92.60
72570;BME280;60594;50.204;8.844;2023-02-03T03:16:20;100946.13;;;7.08;93.10
72570;BME280;60594;50.204;8.844;2023-02-03T03:18:51;100951.50;;;7.07;92.78
72570;BME280;60594;50.204;8.844;2023-02-03T03:21:24;100962.97;;;7.07;93.28
72570;BME280;60594;50.204;8.844;2023-02-03T03:23:53;100961.00;;;7.11;93.27
72570;BME280;60594;50.204;8.844;2023-02-03T03:26:31;100956.56;;;7.12;92.81
72570;BME280;60594;50.204;8.844;2023-02-03T03:29:30;100953.75;;;7.15;92.84
72570;BME280;60594;50.204;8.844;2023-02-03T03:32:01;100941.06;;;7.04;93.20
72570;BME280;60594;50.204;8.844;2023-02-03T03:34:28;100925.25;;;7.02;93.82
72570;BME280;60594;50.204;8.844;2023-02-03T03:37:04;100909.53;;;6.99;93.65
72570;BME280;60594;50.204;8.844;2023-02-03T03:39:45;100910.31;;;7.01;94.62
72570;BME280;60594;50.204;8.844;2023-02-03T03:44:51;100893.88;;;6.95;95.46
72570;BME280;60594;50.204;8.844;2023-02-03T03:47:30;100906.91;;;6.99;95.31
72570;BME280;60594;50.204;8.844;2023-02-03T03:50:01;100910.94;;;7.07;95.35
72570;BME280;60594;50.204;8.844;2023-02-03T03:52:32;100917.50;;;6.99;95.03
72570;BME280;60594;50.204;8.844;2023-02-03T03:55:02;100907.88;;;6.97;95.01
72570;BME280;60594;50.204;8.844;2023-02-03T03:57:53;100903.63;;;6.94;95.32
72570;BME280;60594;50.204;8.844;2023-02-03T04:00:24;100891.84;;;7.00;94.79
72570;BME280;60594;50.204;8.844;2023-02-03T04:02:55;100891.16;;;6.96;94.92
72570;BME280;60594;50.204;8.844;2023-02-03T04:05:24;100886.88;;;6.94;95.27
72570;BME280;60594;50.204;8.844;2023-02-03T04:07:51;100875.59;;;6.90;95.38
72570;BME280;60594;50.204;8.844;2023-02-03T04:10:26;100916.03;;;7.09;94.88
72570;BME280;60594;50.204;8.844;2023-02-03T04:12:55;100932.38;;;7.02;94.63
72570;BME280;60594;50.204;8.844;2023-02-03T04:15:22;100939.81;;;7.11;94.27
72570;BME280;60594;50.204;8.844;2023-02-03T04:17:49;100916.13;;;7.08;94.24
72570;BME280;60594;50.204;8.844;2023-02-03T04:20:16;100938.97;;;7.11;93.86
72570;BME280;60594;50.204;8.844;2023-02-03T04:22:46;100937.06;;;7.13;93.67
72570;BME280;60594;50.204;8.844;2023-02-03T04:25:12;100939.69;;;7.30;92.65
72570;BME280;60594;50.204;8.844;2023-02-03T04:27:39;100922.88;;;7.13;92.59
72570;BME280;60594;50.204;8.844;2023-02-03T04:30:07;100919.22;;;7.16;93.05
72570;BME280;60594;50.204;8.844;2023-02-03T04:32:34;100911.09;;;7.19;92.75
72570;BME280;60594;50.204;8.844;2023-02-03T04:35:02;100928.88;;;7.17;92.57
72570;BME280;60594;50.204;8.844;2023-02-03T04:37:30;100952.03;;;7.13;92.57
72570;BME280;60594;50.204;8.844;2023-02-03T04:39:59;100962.44;;;7.34;91.51
72570;BME280;60594;50.204;8.844;2023-02-03T04:42:26;100956.78;;;7.24;92.43
72570;BME280;60594;50.204;8.844;2023-02-03T04:44:52;100956.34;;;7.32;92.63
72570;BME280;60594;50.204;8.844;2023-02-03T04:47:19;100962.59;;;7.31;92.55
72570;BME280;60594;50.204;8.844;2023-02-03T04:49:46;100946.84;;;7.28;93.19
72570;BME280;60594;50.204;8.844;2023-02-03T04:52:14;100953.88;;;7.29;94.01
72570;BME280;60594;50.204;8.844;2023-02-03T04:54:40;100941.88;;;7.06;96.45
72570;BME280;60594;50.204;8.844;2023-02-03T04:57:08;100932.53;;;6.99;99.16
72570;BME280;60594;50.204;8.844;2023-02-03T04:59:35;100941.75;;;6.92;100.00
72570;BME280;60594;50.204;8.844;2023-02-03T05:02:02;100950.38;;;6.63;100.00
72570;BME280;60594;50.204;8.844;2023-02-03T05:04:29;100938.06;;;6.45;100.00
72570;BME280;60594;50.204;8.844;2023-02-03T05:06:56;100928.44;;;6.44;100.00
72570;BME280;60594;50.204;8.844;2023-02-03T05:09:23;100920.56;;;6.42;100.00
72570;BME280;60594;50.204;8.844;2023-02-03T05:11:51;100908.72;;;6.32;100.00
72570;BME280;60594;50.204;8.844;2023-02-03T05:14:18;100908.56;;;6.35;100.00
72570;BME280;60594;50.204;8.844;2023-02-03T05:16:45;100889.97;;;6.37;100.00
72570;BME280;60594;50.204;8.844;2023-02-03T05:19:12;100877.19;;;6.45;100.00
72570;BME280;60594;50.204;8.844;2023-02-03T05:21:39;100878.34;;;6.39;100.00
72570;BME280;60594;50.204;8.844;2023-02-03T05:24:06;100886.56;;;6.35;100.00
72570;BME280;60594;50.204;8.844;2023-02-03T05:26:34;100870.50;;;6.38;100.00
72570;BME280;60594;50.204;8.844;2023-02-03T05:29:01;100865.31;;;6.36;100.00
72570;BME280;60594;50.204;8.844;2023-02-03T05:31:27;100862.56;;;6.38;100.00
72570;BME280;60594;50.204;8.844;2023-02-03T05:33:54;100869.25;;;6.45;100.00
72570;BME280;60594;50.204;8.844;2023-02-03T05:36:21;100877.38;;;6.42;100.00
72570;BME280;60594;50.204;8.844;2023-02-03T05:38:47;100871.56;;;6.51;100.00
72570;BME280;60594;50.204;8.844;2023-02-03T05:41:14;100871.66;;;6.49;100.00
72570;BME280;60594;50.204;8.844;2023-02-03T05:43:59;100876.09;;;6.49;100.00
72570;BME280;60594;50.204;8.844;2023-02-03T05:46:26;100876.56;;;6.57;100.00
72570;BME280;60594;50.204;8.844;2023-02-03T05:48:52;100890.91;;;6.68;100.00
72570;BME280;60594;50.204;8.844;2023-02-03T05:51:22;100891.56;;;6.73;100.00
72570;BME280;60594;50.204;8.844;2023-02-03T05:53:48;100892.88;;;6.65;99.98
72570;BME280;60594;50.204;8.844;2023-02-03T05:56:15;100893.66;;;6.67;99.55
72570;BME280;60594;50.204;8.844;2023-02-03T05:58:42;100899.72;;;6.69;99.33
72570;BME280;60594;50.204;8.844;2023-02-03T06:01:08;100907.59;;;6.70;99.43
72570;BME280;60594;50.204;8.844;2023-02-03T06:03:36;100901.44;;;6.70;98.89
72570;BME280;60594;50.204;8.844;2023-02-03T06:06:03;100899.31;;;6.76;98.64
72570;BME280;60594;50.204;8.844;2023-02-03T06:08:29;100895.41;;;6.83;98.73
72570;BME280;60594;50.204;8.844;2023-02-03T06:10:57;100899.50;;;6.73;98.19
72570;BME280;60594;50.204;8.844;2023-02-03T06:13:25;100882.56;;;6.76;98.13
72570;BME280;60594;50.204;8.844;2023-02-03T06:15:51;100878.66;;;6.83;97.46
72570;BME280;60594;50.204;8.844;2023-02-03T06:18:18;100879.94;;;6.76;97.95
72570;BME280;60594;50.204;8.844;2023-02-03T06:20:44;100876.50;;;6.74;97.99
72570;BME280;60594;50.204;8.844;2023-02-03T06:23:11;100861.72;;;6.70;98.69
72570;BME280;60594;50.204;8.844;2023-02-03T06:25:37;100857.19;;;6.72;98.14
72570;BME280;60594;50.204;8.844;2023-02-03T06:28:04;100861.97;;;6.81;97.74
72570;BME280;60594;50.204;8.844;2023-02-03T06:30:30;100869.84;;;6.82;97.17
72570;BME280;60594;50.204;8.844;2023-02-03T06:32:57;100874.84;;;6.88;96.97
72570;BME280;60594;50.204;8.844;2023-02-03T06:35:23;100890.88;;;6.85;96.79
72570;BME280;60594;50.204;8.844;2023-02-03T06:37:49;100880.81;;;6.92;96.24
72570;BME280;60594;50.204;8.844;2023-02-03T06:40:16;100881.75;;;6.91;96.13
72570;BME280;60594;50.204;8.844;2023-02-03T06:42:46;100895.00;;;6.91;95.68
72570;BME280;60594;50.204;8.844;2023-02-03T06:45:14;100901.50;;;7.01;95.08
72570;BME280;60594;50.204;8.844;2023-02-03T06:47:41;100906.34;;;6.93;95.57
72570;BME280;60594;50.204;8.844;2023-02-03T06:50:11;100904.50;;;6.95;95.10
72570;BME280;60594;50.204;8.844;2023-02-03T06:52:38;100908.69;;;6.99;94.49
72570;BME280;60594;50.204;8.844;2023-02-03T06:55:05;100896.97;;;7.03;94.42
72570;BME280;60594;50.204;8.844;2023-02-03T06:57:32;100897.22;;;6.98;94.38
72570;BME280;60594;50.204;8.844;2023-02-03T06:59:58;100883.28;;;6.95;93.93
72570;BME280;60594;50.204;8.844;2023-02-03T07:02:25;100882.03;;;7.02;93.98
72570;BME280;60594;50.204;8.844;2023-02-03T07:04:51;100891.75;;;7.01;93.73
72570;BME280;60594;50.204;8.844;2023-02-03T07:07:18;100890.91;;;7.01;93.30
72570;BME280;60594;50.204;8.844;2023-02-03T07:09:44;100901.25;;;7.05;93.42
72570;BME280;60594;50.204;8.844;2023-02-03T07:12:11;100896.03;;;7.04;93.03
72570;BME280;60594;50.204;8.844;2023-02-03T07:14:37;100899.38;;;7.07;93.16
72570;BME280;60594;50.204;8.844;2023-02-03T07:17:04;100890.66;;;7.05;93.36
72570;BME280;60594;50.204;8.844;2023-02-03T07:19:32;100889.44;;;7.11;93.08
72570;BME280;60594;50.204;8.844;2023-02-03T07:21:58;100887.25;;;7.03;93.47
72570;BME280;60594;50.204;8.844;2023-02-03T07:24:25;100879.00;;;7.08;93.25
72570;BME280;60594;50.204;8.844;2023-02-03T07:26:51;100875.59;;;7.06;93.04
72570;BME280;60594;50.204;8.844;2023-02-03T07:29:18;100877.31;;;7.07;93.20
72570;BME280;60594;50.204;8.844;2023-02-03T07:31:44;100898.50;;;7.07;93.48
72570;BME280;60594;50.204;8.844;2023-02-03T07:34:11;100904.59;;;7.09;93.01
72570;BME280;60594;50.204;8.844;2023-02-03T07:36:37;100912.56;;;7.09;92.39
72570;BME280;60594;50.204;8.844;2023-02-03T07:39:04;100900.31;;;7.07;92.77
72570;BME280;60594;50.204;8.844;2023-02-03T07:41:30;100907.91;;;7.13;92.94
72570;BME280;60594;50.204;8.844;2023-02-03T07:43:57;100902.19;;;7.04;93.15
72570;BME280;60594;50.204;8.844;2023-02-03T07:46:23;100893.22;;;7.07;92.81
72570;BME280;60594;50.204;8.844;2023-02-03T07:48:50;100898.19;;;7.13;91.95
72570;BME280;60594;50.204;8.844;2023-02-03T07:51:16;100906.41;;;7.24;91.47
72570;BME280;60594;50.204;8.844;2023-02-03T07:53:44;100898.69;;;7.20;91.62
72570;BME280;60594;50.204;8.844;2023-02-03T07:56:10;100895.97;;;7.21;91.54
72570;BME280;60594;50.204;8.844;2023-02-03T07:58:37;100906.25;;;7.27;91.47
72570;BME280;60594;50.204;8.844;2023-02-03T08:01:15;100909.56;;;7.31;90.70
72570;BME280;60594;50.204;8.844;2023-02-03T08:03:42;100894.06;;;7.39;90.37
72570;BME280;60594;50.204;8.844;2023-02-03T08:06:08;100898.88;;;7.32;90.27
72570;BME280;60594;50.204;8.844;2023-02-03T08:08:35;100901.53;;;7.48;89.14
72570;BME280;60594;50.204;8.844;2023-02-03T08:11:02;100905.97;;;7.47;89.29
72570;BME280;60594;50.204;8.844;2023-02-03T08:13:28;100900.59;;;7.49;89.10
72570;BME280;60594;50.204;8.844;2023-02-03T08:15:54;100898.44;;;7.55;88.78
72570;BME280;60594;50.204;8.844;2023-02-03T08:18:21;100907.09;;;7.59;88.17
72570;BME280;60594;50.204;8.844;2023-02-03T08:20:48;100903.56;;;7.58;87.77
72570;BME280;60594;50.204;8.844;2023-02-03T08:23:15;100896.81;;;7.53;88.09
72570;BME280;60594;50.204;8.844;2023-02-03T08:25:41;100903.41;;;7.61;87.86
72570;BME280;60594;50.204;8.844;2023-02-03T08:28:08;100887.13;;;7.67;87.33
72570;BME280;60594;50.204;8.844;2023-02-03T08:30:34;100890.97;;;7.77;86.41
72570;BME280;60594;50.204;8.844;2023-02-03T08:33:01;100891.59;;;7.67;86.82
72570;BME280;60594;50.204;8.844;2023-02-03T08:35:28;100892.34;;;7.69;86.52
72570;BME280;60594;50.204;8.844;2023-02-03T08:37:54;100895.59;;;7.74;86.68
72570;BME280;60594;50.204;8.844;2023-02-03T08:40:21;100886.44;;;7.79;86.09
72570;BME280;60594;50.204;8.844;2023-02-03T08:42:48;100889.25;;;7.76;86.10
72570;BME280;60594;50.204;8.844;2023-02-03T08:45:14;100872.66;;;7.73;85.84
72570;BME280;60594;50.204;8.844;2023-02-03T08:47:41;100882.41;;;7.72;86.48
72570;BME280;60594;50.204;8.844;2023-02-03T08:50:08;100877.59;;;7.79;85.86
72570;BME280;60594;50.204;8.844;2023-02-03T08:52:35;100874.69;;;7.83;84.87
72570;BME280;60594;50.204;8.844;2023-02-03T08:55:01;100860.03;;;7.92;84.52
72570;BME280;60594;50.204;8.844;2023-02-03T08:57:34;100853.09;;;7.89;84.90
72570;BME280;60594;50.204;8.844;2023-02-03T09:00:03;100853.09;;;7.89;84.75
72570;BME280;60594;50.204;8.844;2023-02-03T09:02:30;100849.00;;;7.84;84.92
72570;BME280;60594;50.204;8.844;2023-02-03T09:04:57;100855.00;;;7.87;85.14
72570;BME280;60594;50.204;8.844;2023-02-03T09:07:24;100859.66;;;7.98;84.35
72570;BME280;60594;50.204;8.844;2023-02-03T09:09:50;100869.16;;;8.02;84.13
72570;BME280;60594;50.204;8.844;2023-02-03T09:12:17;100873.31;;;8.06;84.41
72570;BME280;60594;50.204;8.844;2023-02-03T09:14:43;100876.28;;;8.01;84.20
72570;BME280;60594;50.204;8.844;2023-02-03T09:17:10;100883.59;;;8.12;84.12
72570;BME280;60594;50.204;8.844;2023-02-03T09:19:36;100878.47;;;8.09;83.50
72570;BME280;60594;50.204;8.844;2023-02-03T09:22:03;100886.66;;;8.20;82.74
72570;BME280;60594;50.204;8.844;2023-02-03T09:24:30;100884.16;;;8.17;82.82
72570;BME280;60594;50.204;8.844;2023-02-03T09:26:56;100876.59;;;8.11;82.46
72570;BME280;60594;50.204;8.844;2023-02-03T09:29:23;100866.81;;;8.11;82.37
72570;BME280;60594;50.204;8.844;2023-02-03T09:31:49;100863.56;;;8.22;81.90
72570;BME280;60594;50.204;8.844;2023-02-03T09:34:19;100869.75;;;8.21;82.01
72570;BME280;60594;50.204;8.844;2023-02-03T09:36:47;100866.44;;;8.33;81.59
72570;BME280;60594;50.204;8.844;2023-02-03T09:39:14;100852.66;;;8.40;80.74
72570;BME280;60594;50.204;8.844;2023-02-03T09:47:18;100847.09;;;8.59;79.20
72570;BME280;60594;50.204;8.844;2023-02-03T09:49:56;100836.66;;;8.56;79.94
72570;BME280;60594;50.204;8.844;2023-02-03T09:52:41;100819.19;;;8.66;78.96
72570;BME280;60594;50.204;8.844;2023-02-03T09:58:07;100820.41;;;8.88;77.40
72570;BME280;60594;50.204;8.844;2023-02-03T10:00:36;100820.97;;;8.93;78.32
72570;BME280;60594;50.204;8.844;2023-02-03T10:03:06;100830.28;;;9.00;78.03
72570;BME280;60594;50.204;8.844;2023-02-03T10:14:32;100817.16;;;9.11;76.03
72570;BME280;60594;50.204;8.844;2023-02-03T10:17:10;100821.84;;;9.20;76.40
72570;BME280;60594;50.204;8.844;2023-02-03T10:19:48;100812.56;;;9.13;76.71
72570;BME280;60594;50.204;8.844;2023-02-03T10:22:23;100812.56;;;9.13;76.61
72570;BME280;60594;50.204;8.844;2023-02-03T10:25:39;100818.66;;;9.15;76.95
72570;BME280;60594;50.204;8.844;2023-02-03T10:27:52;100816.38;;;9.09;76.52
72570;BME280;60594;50.204;8.844;2023-02-03T10:30:30;100837.28;;;9.15;76.67
72570;BME280;60594;50.204;8.844;2023-02-03T10:33:09;100842.94;;;9.23;76.29
72570;BME280;60594;50.204;8.844;2023-02-03T10:41:11;100841.78;;;9.27;76.40
72570;BME280;60594;50.204;8.844;2023-02-03T10:43:38;100842.75;;;9.26;76.40
72570;BME280;60594;50.204;8.844;2023-02-03T10:46:15;100835.94;;;9.22;75.75
72570;BME280;60594;50.204;8.844;2023-02-03T10:48:42;100839.31;;;9.24;76.07
72570;BME280;60594;50.204;8.844;2023-02-03T10:51:23;100834.00;;;9.24;75.98
72570;BME280;60594;50.204;8.844;2023-02-03T10:53:51;100829.44;;;9.26;76.12
72570;BME280;60594;50.204;8.844;2023-02-03T10:56:48;100825.72;;;9.29;75.79
72570;BME280;60594;50.204;8.844;2023-02-03T10:59:27;100830.59;;;9.22;76.31
72570;BME280;60594;50.204;8.844;2023-02-03T11:01:54;100809.19;;;9.24;76.24
72570;BME280;60594;50.204;8.844;2023-02-03T11:04:27;100807.78;;;9.18;76.35
72570;BME280;60594;50.204;8.844;2023-02-03T11:06:56;100803.06;;;9.23;76.69
72570;BME280;60594;50.204;8.844;2023-02-03T11:09:41;100801.34;;;9.22;77.57
72570;BME280;60594;50.204;8.844;2023-02-03T11:12:17;100794.50;;;9.18;77.51
72570;BME280;60594;50.204;8.844;2023-02-03T11:14:49;100796.78;;;9.24;77.99
72570;BME280;60594;50.204;8.844;2023-02-03T11:17:23;100813.59;;;9.25;77.47
72570;BME280;60594;50.204;8.844;2023-02-03T11:19:53;100809.00;;;9.27;77.83
72570;BME280;60594;50.204;8.844;2023-02-03T11:22:30;100814.34;;;9.27;77.64
72570;BME280;60594;50.204;8.844;2023-02-03T11:25:01;100837.03;;;9.18;77.92
72570;BME280;60594;50.204;8.844;2023-02-03T11:27:30;100839.25;;;9.12;78.90
72570;BME280;60594;50.204;8.844;2023-02-03T11:30:25;100847.03;;;9.15;78.79
72570;BME280;60594;50.204;8.844;2023-02-03T11:32:52;100842.00;;;9.10;79.46
72570;BME280;60594;50.204;8.844;2023-02-03T11:35:27;100855.81;;;9.03;79.75
72570;BME280;60594;50.204;8.844;2023-02-03T11:37:57;100850.97;;;8.95;80.71
72570;BME280;60594;50.204;8.844;2023-02-03T11:40:28;100853.72;;;8.94;80.05
72570;BME280;60594;50.204;8.844;2023-02-03T11:45:26;100844.13;;;8.77;81.60
72570;BME280;60594;50.204;8.844;2023-02-03T11:47:57;100818.25;;;8.81;81.09
72570;BME280;60594;50.204;8.844;2023-02-03T11:50:35;100806.75;;;8.80;81.76
72570;BME280;60594;50.204;8.844;2023-02-03T11:56:01;100799.06;;;8.76;82.01
72570;BME280;60594;50.204;8.844;2023-02-03T12:06:25;100779.63;;;8.61;85.15
72570;BME280;60594;50.204;8.844;2023-02-03T12:09:18;100775.47;;;8.57;84.59
72570;BME280;60594;50.204;8.844;2023-02-03T12:12:24;100763.03;;;8.58;84.06
72570;BME280;60594;50.204;8.844;2023-02-03T12:28:40;100777.06;;;8.60;85.85
72570;BME280;60594;50.204;8.844;2023-02-03T12:31:34;100772.91;;;8.56;86.27
72570;BME280;60594;50.204;8.844;2023-02-03T12:34:29;100799.09;;;8.48;86.99
72570;BME280;60594;50.204;8.844;2023-02-03T12:37:03;100808.47;;;8.39;88.30
72570;BME280;60594;50.204;8.844;2023-02-03T12:39:52;100809.44;;;8.38;89.50
72570;BME280;60594;50.204;8.844;2023-02-03T12:42:38;100802.88;;;8.30;90.67
72570;BME280;60594;50.204;8.844;2023-02-03T12:47:46;100810.88;;;8.14;92.43
72570;BME280;60594;50.204;8.844;2023-02-03T12:50:22;100794.28;;;8.11;93.95
72570;BME280;60594;50.204;8.844;2023-02-03T12:53:13;100784.81;;;8.07;94.47
72570;BME280;60594;50.204;8.844;2023-02-03T12:56:06;100786.13;;;8.00;96.05
72570;BME280;60594;50.204;8.844;2023-02-03T12:58:56;100773.19;;;7.80;97.86
72570;BME280;60594;50.204;8.844;2023-02-03T13:01:28;100770.81;;;7.75;98.81
72570;BME280;60594;50.204;8.844;2023-02-03T13:04:07;100773.75;;;7.71;99.48
72570;BME280;60594;50.204;8.844;2023-02-03T13:12:04;100749.94;;;7.69;100.00
72570;BME280;60594;50.204;8.844;2023-02-03T13:14:42;100764.19;;;7.68;100.00
72570;BME280;60594;50.204;8.844;2023-02-03T13:17:20;100764.53;;;7.62;100.00
72570;BME280;60594;50.204;8.844;2023-02-03T13:19:52;100763.88;;;7.59;100.00
72570;BME280;60594;50.204;8.844;2023-02-03T13:22:21;100764.31;;;7.51;100.00
72570;BME280;60594;50.204;8.844;2023-02-03T13:24:56;100778.59;;;7.49;100.00
72570;BME280;60594;50.204;8.844;2023-02-03T13:30:16;100780.03;;;7.54;100.00
72570;BME280;60594;50.204;8.844;2023-02-03T13:33:07;100779.78;;;7.59;100.00
72570;BME280;60594;50.204;8.844;2023-02-03T13:35:57;100771.75;;;7.60;100.00
72570;BME280;60594;50.204;8.844;2023-02-03T13:41:08;100766.44;;;7.60;100.00
72570;BME280;60594;50.204;8.844;2023-02-03T13:43:39;100768.31;;;7.58;100.00
72570;BME280;60594;50.204;8.844;2023-02-03T13:46:26;100760.00;;;7.64;100.00
72570;BME280;60594;50.204;8.844;2023-02-03T13:48:58;100755.13;;;7.57;100.00
72570;BME280;60594;50.204;8.844;2023-02-03T13:51:45;100763.09;;;7.57;100.00
72570;BME280;60594;50.204;8.844;2023-02-03T13:54:22;100753.88;;;7.48;100.00
72570;BME280;60594;50.204;8.844;2023-02-03T13:57:00;100752.25;;;7.46;100.00
72570;BME280;60594;50.204;8.844;2023-02-03T14:17:55;100778.78;;;7.46;100.00
72570;BME280;60594;50.204;8.844;2023-02-03T14:25:32;100784.94;;;7.46;100.00
72570;BME280;60594;50.204;8.844;2023-02-03T14:28:08;100791.06;;;7.47;100.00
72570;BME280;60594;50.204;8.844;2023-02-03T14:34:12;100784.94;;;7.46;100.00
72570;BME280;60594;50.204;8.844;2023-02-03T14:36:46;100776.69;;;7.51;100.00
72570;BME280;60594;50.204;8.844;2023-02-03T14:42:22;100765.09;;;7.53;100.00
72570;BME280;60594;50.204;8.844;2023-02-03T14:48:04;100759.88;;;7.52;100.00
72570;BME280;60594;50.204;8.844;2023-02-03T14:55:57;100780.53;;;7.61;100.00
72570;BME280;60594;50.204;8.844;2023-02-03T14:58:51;100793.44;;;7.67;100.00
72570;BME280;60594;50.204;8.844;2023-02-03T15:06:46;100814.03;;;7.77;100.00
72570;BME280;60594;50.204;8.844;2023-02-03T15:09:28;100793.66;;;7.78;100.00
72570;BME280;60594;50.204;8.844;2023-02-03T15:11:57;100802.19;;;7.83;100.00
72570;BME280;60594;50.204;8.844;2023-02-03T15:14:27;100814.41;;;7.85;100.00
72570;BME280;60594;50.204;8.844;2023-02-03T15:17:02;100811.66;;;7.87;100.00